createdAt,value
2023-05-12T00:00:08.210Z,96.69
2023-05-12T00:02:52.021Z,96.79
2023-05-12T00:05:27.475Z,96.97
2023-05-12T00:08:03.221Z,97.22
2023-05-12T00:10:48.400Z,96.31
2023-05-12T00:13:28.707Z,94.47
2023-05-12T00:16:12.513Z,94.40
2023-05-12T00:19:00.726Z,93.53
2023-05-12T00:21:44.108Z,92.91
2023-05-12T00:24:33.993Z,92.57
2023-05-12T00:27:14.053Z,92.43
2023-05-12T00:30:00.521Z,93.73
2023-05-12T00:32:49.298Z,96.29
2023-05-12T00:35:28.928Z,96.94
2023-05-12T00:38:07.191Z,98.24
2023-05-12T00:40:52.756Z,98.68
2023-05-12T00:43:28.775Z,99.63
2023-05-12T00:46:11.031Z,100.00
2023-05-12T00:48:54.515Z,100.00
2023-05-12T00:51:32.088Z,100.00
2023-05-12T00:54:09.874Z,100.00
2023-05-12T00:56:58.156Z,100.00
2023-05-12T00:59:47.369Z,100.00
2023-05-12T01:02:38.372Z,100.00
2023-05-12T01:05:25.258Z,100.00
2023-05-12T01:08:08.742Z,100.00
2023-05-12T01:10:54.783Z,100.00
2023-05-12T01:13:33.249Z,100.00
2023-05-12T01:16:12.506Z,100.00
2023-05-12T01:19:01.450Z,100.00
2023-05-12T01:21:42.306Z,100.00
2023-05-12T01:24:26.963Z,100.00
2023-05-12T01:27:06.072Z,100.00
2023-05-12T01:29:50.152Z,100.00
2023-05-12T01:32:30.744Z,100.00
2023-05-12T01:35:12.376Z,100.00
2023-05-12T01:38:12.493Z,100.00
2023-05-12T01:41:06.341Z,100.00
2023-05-12T01:43:47.446Z,100.00
2023-05-12T01:46:34.747Z,100.00
2023-05-12T01:49:15.753Z,100.00
2023-05-12T01:52:02.549Z,100.00
2023-05-12T01:54:51.466Z,100.00
2023-05-12T01:57:32.942Z,100.00
2023-05-12T02:03:01.925Z,100.00
2023-05-12T02:05:48.166Z,100.00
2023-05-12T02:08:38.766Z,100.00
2023-05-12T02:11:26.114Z,100.00
2023-05-12T02:14:13.330Z,100.00
2023-05-12T02:16:57.177Z,100.00
2023-05-12T02:19:40.535Z,100.00
2023-05-12T02:22:26.932Z,100.00
2023-05-12T02:25:07.864Z,100.00
2023-05-12T02:27:52.255Z,100.00
2023-05-12T02:30:38.748Z,100.00
2023-05-12T02:33:24.487Z,100.00
2023-05-12T02:35:59.694Z,100.00
2023-05-12T02:38:31.848Z,100.00
2023-05-12T02:41:13.222Z,100.00
2023-05-12T02:43:58.474Z,100.00
2023-05-12T02:46:45.527Z,100.00
2023-05-12T02:49:42.024Z,100.00
2023-05-12T02:52:31.335Z,100.00
2023-05-12T02:55:12.564Z,100.00
2023-05-12T02:57:56.466Z,100.00
2023-05-12T03:00:34.486Z,100.00
2023-05-12T03:03:15.941Z,100.00
2023-05-12T03:06:04.712Z,100.00
2023-05-12T03:08:45.983Z,100.00
2023-05-12T03:11:24.720Z,100.00
2023-05-12T03:14:15.082Z,100.00
2023-05-12T03:17:00.509Z,100.00
2023-05-12T03:19:48.866Z,100.00
2023-05-12T03:22:38.254Z,100.00
2023-05-12T03:25:19.155Z,100.00
2023-05-12T03:28:07.925Z,100.00
2023-05-12T03:30:53.319Z,100.00
2023-05-12T03:33:34.078Z,100.00
2023-05-12T03:36:26.938Z,100.00
2023-05-12T03:39:27.361Z,100.00
2023-05-12T03:42:06.691Z,100.00
2023-05-12T03:44:56.261Z,100.00
2023-05-12T03:47:41.263Z,100.00
2023-05-12T03:50:28.918Z,100.00
2023-05-12T03:53:28.224Z,100.00
2023-05-12T03:56:16.768Z,100.00
2023-05-12T03:59:10.064Z,100.00
2023-05-12T04:01:52.340Z,100.00
2023-05-12T04:04:43.934Z,100.00
2023-05-12T04:07:25.184Z,100.00
2023-05-12T04:10:11.405Z,100.00
2023-05-12T04:12:55.336Z,100.00
2023-05-12T04:15:55.819Z,100.00
2023-05-12T04:18:41.367Z,100.00
2023-05-12T04:21:24.763Z,100.00
2023-05-12T04:24:19.032Z,100.00
2023-05-12T04:27:00.634Z,100.00
2023-05-12T04:29:48.808Z,100.00
2023-05-12T04:32:28.886Z,100.00
2023-05-12T04:35:17.046Z,100.00
2023-05-12T04:38:05.479Z,100.00
2023-05-12T04:40:53.512Z,100.00
2023-05-12T04:46:37.462Z,100.00
2023-05-12T04:49:31.005Z,100.00
2023-05-12T04:52:08.409Z,100.00
2023-05-12T04:54:54.278Z,100.00
2023-05-12T04:57:47.543Z,100.00
2023-05-12T05:00:31.005Z,100.00
2023-05-12T05:03:16.097Z,100.00
2023-05-12T05:05:59.974Z,100.00
2023-05-12T05:08:43.726Z,100.00
2023-05-12T05:11:26.789Z,100.00
2023-05-12T05:14:16.892Z,100.00
2023-05-12T05:17:03.270Z,100.00
2023-05-12T05:19:55.145Z,100.00
2023-05-12T05:22:45.558Z,100.00
2023-05-12T05:25:28.777Z,100.00
2023-05-12T05:28:15.983Z,100.00
2023-05-12T05:30:54.423Z,100.00
2023-05-12T05:33:40.061Z,100.00
2023-05-12T05:36:28.512Z,100.00
2023-05-12T05:39:18.607Z,100.00
2023-05-12T05:42:22.979Z,100.00
2023-05-12T05:45:09.033Z,100.00
2023-05-12T05:47:53.842Z,100.00
2023-05-12T05:50:33.977Z,100.00
2023-05-12T05:53:18.470Z,100.00
2023-05-12T05:56:11.351Z,100.00
2023-05-12T05:58:49.274Z,100.00
2023-05-12T06:01:38.027Z,100.00
2023-05-12T06:04:28.441Z,100.00
2023-05-12T06:07:27.171Z,100.00
2023-05-12T06:10:16.465Z,100.00
2023-05-12T06:13:10.975Z,100.00
2023-05-12T06:16:08.751Z,100.00
2023-05-12T06:19:06.064Z,100.00
2023-05-12T06:21:57.946Z,100.00
2023-05-12T06:24:46.193Z,100.00
2023-05-12T06:27:39.956Z,100.00
2023-05-12T06:30:19.205Z,100.00
2023-05-12T06:33:00.210Z,100.00
2023-05-12T06:35:43.574Z,100.00
2023-05-12T06:38:28.625Z,100.00
2023-05-12T06:41:15.411Z,100.00
2023-05-12T06:44:06.536Z,100.00
2023-05-12T06:46:52.915Z,100.00
2023-05-12T06:49:37.086Z,100.00
2023-05-12T06:52:29.176Z,100.00
2023-05-12T06:55:10.997Z,100.00
2023-05-12T06:58:01.792Z,100.00
2023-05-12T07:00:52.512Z,100.00
2023-05-12T07:03:59.315Z,100.00
2023-05-12T07:06:43.003Z,100.00
2023-05-12T07:09:46.543Z,100.00
2023-05-12T07:12:35.722Z,100.00
2023-05-12T07:15:22.734Z,100.00
2023-05-12T07:18:06.901Z,100.00
2023-05-12T07:20:55.329Z,100.00
2023-05-12T07:23:43.572Z,100.00
2023-05-12T07:26:26.897Z,100.00
2023-05-12T07:29:14.102Z,100.00
2023-05-12T07:32:06.349Z,100.00
2023-05-12T07:34:50.776Z,100.00
2023-05-12T07:37:37.620Z,100.00
2023-05-12T07:40:21.603Z,100.00
2023-05-12T07:43:08.097Z,100.00
2023-05-12T07:45:56.339Z,100.00
2023-05-12T07:48:47.431Z,100.00
2023-05-12T07:51:35.201Z,100.00
2023-05-12T07:54:19.601Z,100.00
2023-05-12T07:57:15.278Z,100.00
2023-05-12T07:59:56.929Z,100.00
2023-05-12T08:02:35.073Z,100.00
2023-05-12T08:05:23.996Z,100.00
2023-05-12T08:08:03.932Z,100.00
2023-05-12T08:10:52.551Z,100.00
2023-05-12T08:13:33.449Z,100.00
2023-05-12T08:16:12.779Z,100.00
2023-05-12T08:18:53.892Z,100.00
2023-05-12T08:21:44.184Z,100.00
2023-05-12T08:24:25.336Z,100.00
2023-05-12T08:27:23.339Z,100.00
2023-05-12T08:30:06.683Z,100.00
2023-05-12T08:32:47.501Z,100.00
2023-05-12T08:35:30.976Z,100.00
2023-05-12T08:38:21.472Z,100.00
2023-05-12T08:41:19.861Z,100.00
2023-05-12T08:44:04.003Z,100.00
2023-05-12T08:46:44.731Z,100.00
2023-05-12T08:49:26.184Z,100.00
2023-05-12T08:52:07.710Z,100.00
2023-05-12T08:54:55.551Z,100.00
2023-05-12T08:57:38.956Z,100.00
2023-05-12T09:00:26.028Z,100.00
2023-05-12T09:03:08.723Z,100.00
2023-05-12T09:05:51.324Z,100.00
2023-05-12T09:08:36.510Z,100.00
2023-05-12T09:11:17.269Z,100.00
2023-05-12T09:14:42.089Z,100.00
2023-05-12T09:17:35.470Z,100.00
2023-05-12T09:20:27.853Z,100.00
2023-05-12T09:23:24.701Z,100.00
2023-05-12T09:26:22.482Z,100.00
2023-05-12T09:29:10.808Z,100.00
2023-05-12T09:32:14.250Z,100.00
2023-05-12T09:35:00.054Z,100.00
2023-05-12T09:37:44.889Z,100.00
2023-05-12T09:40:34.140Z,100.00
2023-05-12T09:43:17.588Z,100.00
2023-05-12T09:45:58.526Z,100.00
2023-05-12T09:48:41.991Z,100.00
2023-05-12T09:51:45.386Z,100.00
2023-05-12T09:54:28.505Z,100.00
2023-05-12T09:57:11.816Z,100.00
2023-05-12T09:59:55.530Z,100.00
2023-05-12T10:02:42.838Z,100.00
2023-05-12T10:05:23.456Z,100.00
2023-05-12T10:08:10.270Z,100.00
2023-05-12T10:11:14.754Z,100.00
2023-05-12T10:14:19.311Z,100.00
2023-05-12T10:17:06.737Z,100.00
2023-05-12T10:20:01.983Z,100.00
2023-05-12T10:22:49.365Z,100.00
2023-05-12T10:25:27.462Z,100.00
2023-05-12T10:28:08.456Z,100.00
2023-05-12T10:30:49.848Z,100.00
2023-05-12T10:33:45.976Z,100.00
2023-05-12T10:36:33.176Z,100.00
2023-05-12T10:39:22.327Z,100.00
2023-05-12T10:42:14.783Z,100.00
2023-05-12T10:45:02.798Z,100.00
2023-05-12T10:47:54.732Z,100.00
2023-05-12T10:50:59.090Z,100.00
2023-05-12T10:53:56.176Z,100.00
2023-05-12T10:56:47.367Z,100.00
2023-05-12T10:59:37.812Z,100.00
2023-05-12T11:02:36.649Z,100.00
2023-05-12T11:05:36.560Z,100.00
2023-05-12T11:08:14.320Z,100.00
2023-05-12T11:10:56.204Z,100.00
2023-05-12T11:13:39.196Z,100.00
2023-05-12T11:16:23.591Z,100.00
2023-05-12T11:19:15.567Z,100.00
2023-05-12T11:22:16.069Z,100.00
2023-05-12T11:24:57.429Z,100.00
2023-05-12T11:27:43.955Z,100.00
2023-05-12T11:30:21.887Z,100.00
2023-05-12T11:33:11.778Z,100.00
2023-05-12T11:35:52.638Z,100.00
2023-05-12T11:38:36.984Z,100.00
2023-05-12T11:41:29.923Z,100.00
2023-05-12T11:44:31.034Z,100.00
2023-05-12T11:47:32.792Z,100.00
2023-05-12T11:50:20.088Z,100.00
2023-05-12T11:53:02.935Z,100.00
2023-05-12T11:55:51.405Z,100.00
2023-05-12T11:58:38.483Z,100.00
2023-05-12T12:01:23.926Z,100.00
2023-05-12T12:04:12.966Z,100.00
2023-05-12T12:07:02.879Z,100.00
2023-05-12T12:09:54.014Z,100.00
2023-05-12T12:12:42.527Z,100.00
2023-05-12T12:15:26.232Z,100.00
2023-05-12T12:18:15.922Z,100.00
2023-05-12T12:20:53.767Z,100.00
2023-05-12T12:23:51.184Z,100.00
2023-05-12T12:26:35.064Z,100.00
2023-05-12T12:29:19.284Z,100.00
2023-05-12T12:32:05.875Z,100.00
2023-05-12T12:34:49.073Z,100.00
2023-05-12T12:37:31.773Z,100.00
2023-05-12T12:40:14.841Z,100.00
2023-05-12T12:42:59.270Z,100.00
2023-05-12T12:45:56.192Z,100.00
2023-05-12T12:48:38.620Z,100.00
2023-05-12T12:51:24.398Z,100.00
2023-05-12T12:54:19.265Z,100.00
2023-05-12T12:56:57.980Z,100.00
2023-05-12T12:59:46.686Z,100.00
2023-05-12T13:02:30.595Z,100.00
2023-05-12T13:05:11.956Z,100.00
2023-05-12T13:07:51.259Z,100.00
2023-05-12T13:10:32.486Z,100.00
2023-05-12T13:13:10.597Z,100.00
2023-05-12T13:15:55.983Z,100.00
2023-05-12T13:18:48.265Z,100.00
2023-05-12T13:21:26.412Z,100.00
2023-05-12T13:24:12.390Z,100.00
2023-05-12T13:26:59.005Z,100.00
2023-05-12T13:29:42.342Z,100.00
2023-05-12T13:32:37.723Z,100.00
2023-05-12T13:35:17.433Z,100.00
2023-05-12T13:37:56.017Z,100.00
2023-05-12T13:40:36.671Z,100.00
2023-05-12T13:43:18.307Z,100.00
2023-05-12T13:46:06.845Z,100.00
2023-05-12T13:48:56.882Z,100.00
2023-05-12T13:51:47.433Z,100.00
2023-05-12T13:54:30.929Z,100.00
2023-05-12T13:57:27.041Z,100.00
2023-05-12T14:00:08.968Z,100.00
2023-05-12T14:02:52.989Z,100.00
2023-05-12T14:05:34.994Z,100.00
2023-05-12T14:08:24.784Z,100.00
2023-05-12T14:11:02.330Z,100.00
2023-05-12T14:13:50.942Z,100.00
2023-05-12T14:16:39.186Z,100.00
2023-05-12T14:19:32.204Z,100.00
2023-05-12T14:22:18.740Z,100.00
2023-05-12T14:25:16.919Z,100.00
2023-05-12T14:28:00.941Z,100.00
2023-05-12T14:30:43.630Z,100.00
2023-05-12T14:33:25.240Z,100.00
2023-05-12T14:36:08.394Z,100.00
2023-05-12T14:38:47.510Z,100.00
2023-05-12T14:41:34.419Z,100.00
2023-05-12T14:44:14.180Z,100.00
2023-05-12T14:46:46.985Z,100.00
2023-05-12T14:49:28.166Z,100.00
2023-05-12T14:52:12.331Z,100.00
2023-05-12T14:54:50.868Z,100.00
2023-05-12T14:57:26.188Z,100.00
2023-05-12T15:00:06.901Z,100.00
2023-05-12T15:02:44.926Z,100.00
2023-05-12T15:05:41.177Z,100.00
2023-05-12T15:08:30.894Z,100.00
2023-05-12T15:11:06.751Z,100.00
2023-05-12T15:13:47.404Z,100.00
2023-05-12T15:16:28.314Z,100.00
2023-05-12T15:19:06.929Z,100.00
2023-05-12T15:21:49.943Z,100.00
2023-05-12T15:24:33.651Z,100.00
2023-05-12T15:27:16.968Z,100.00
2023-05-12T15:29:59.701Z,100.00
2023-05-12T15:32:40.556Z,100.00
2023-05-12T15:35:27.632Z,100.00
2023-05-12T15:38:08.831Z,100.00
2023-05-12T15:41:03.952Z,100.00
2023-05-12T15:43:49.610Z,100.00
2023-05-12T15:46:35.797Z,100.00
2023-05-12T15:49:24.351Z,100.00
2023-05-12T15:52:02.645Z,100.00
2023-05-12T15:54:51.411Z,100.00
2023-05-12T15:57:38.899Z,100.00
2023-05-12T16:00:25.945Z,100.00
2023-05-12T16:03:06.989Z,100.00
2023-05-12T16:05:50.707Z,100.00
2023-05-12T16:08:32.248Z,100.00
2023-05-12T16:11:16.140Z,100.00
2023-05-12T16:14:00.364Z,100.00
2023-05-12T16:17:01.246Z,100.00
2023-05-12T16:19:46.463Z,100.00
2023-05-12T16:22:27.271Z,100.00
2023-05-12T16:25:22.753Z,100.00
2023-05-12T16:28:06.668Z,100.00
2023-05-12T16:30:55.103Z,100.00
2023-05-12T16:33:38.834Z,100.00
2023-05-12T16:36:27.479Z,100.00
2023-05-12T16:39:14.404Z,100.00
2023-05-12T16:41:50.483Z,100.00
2023-05-12T16:44:47.671Z,100.00
2023-05-12T16:47:38.606Z,100.00
2023-05-12T16:50:13.792Z,100.00
2023-05-12T16:52:57.421Z,100.00
2023-05-12T16:55:41.092Z,100.00
2023-05-12T16:58:29.571Z,100.00
2023-05-12T17:01:14.865Z,100.00
2023-05-12T17:03:59.180Z,100.00
2023-05-12T17:06:44.490Z,100.00
2023-05-12T17:09:36.760Z,100.00
2023-05-12T17:12:20.982Z,100.00
2023-05-12T17:15:08.164Z,100.00
2023-05-12T17:17:52.945Z,100.00
2023-05-12T17:20:33.134Z,100.00
2023-05-12T17:23:18.595Z,100.00
2023-05-12T17:26:24.844Z,100.00
2023-05-12T17:29:02.942Z,100.00
2023-05-12T17:31:50.535Z,100.00
2023-05-12T17:34:40.387Z,100.00
2023-05-12T17:37:30.923Z,100.00
2023-05-12T17:40:08.923Z,100.00
2023-05-12T17:42:49.820Z,100.00
2023-05-12T17:45:28.505Z,100.00
2023-05-12T17:48:08.893Z,100.00
2023-05-12T17:50:50.583Z,100.00
2023-05-12T17:53:31.889Z,100.00
2023-05-12T17:56:15.796Z,100.00
2023-05-12T17:58:56.417Z,100.00
2023-05-12T18:01:37.278Z,100.00
2023-05-12T18:04:16.127Z,100.00
2023-05-12T18:06:51.113Z,100.00
2023-05-12T18:09:34.457Z,100.00
2023-05-12T18:12:17.700Z,100.00
2023-05-12T18:15:03.942Z,100.00
2023-05-12T18:17:47.963Z,100.00
2023-05-12T18:20:31.008Z,100.00
2023-05-12T18:23:16.309Z,100.00
2023-05-12T18:26:02.728Z,100.00
2023-05-12T18:28:40.422Z,100.00
2023-05-12T18:31:16.503Z,100.00
2023-05-12T18:34:03.033Z,100.00
2023-05-12T18:36:51.819Z,100.00
2023-05-12T18:39:31.154Z,100.00
2023-05-12T18:42:18.393Z,100.00
2023-05-12T18:45:01.771Z,100.00
2023-05-12T18:47:45.915Z,100.00
2023-05-12T18:50:27.931Z,100.00
2023-05-12T18:53:09.266Z,100.00
2023-05-12T18:55:54.985Z,100.00
2023-05-12T18:58:43.361Z,100.00
2023-05-12T19:01:27.632Z,100.00
2023-05-12T19:04:12.196Z,100.00
2023-05-12T19:06:58.884Z,100.00
2023-05-12T19:09:45.277Z,100.00
2023-05-12T19:12:32.360Z,100.00
2023-05-12T19:15:14.802Z,100.00
2023-05-12T19:17:58.985Z,100.00
2023-05-12T19:20:43.382Z,100.00
2023-05-12T19:23:25.890Z,100.00
2023-05-12T19:26:07.174Z,100.00
2023-05-12T19:28:51.892Z,100.00
2023-05-12T19:31:41.279Z,100.00
2023-05-12T19:34:25.899Z,100.00
2023-05-12T19:37:09.698Z,100.00
2023-05-12T19:39:51.720Z,100.00
2023-05-12T19:42:32.779Z,100.00
2023-05-12T19:45:20.686Z,100.00
2023-05-12T19:48:04.365Z,100.00
2023-05-12T19:50:49.089Z,100.00
2023-05-12T19:53:29.888Z,100.00
2023-05-12T19:56:08.887Z,100.00
2023-05-12T19:58:52.676Z,100.00
2023-05-12T20:01:34.056Z,100.00
2023-05-12T20:04:14.898Z,100.00
2023-05-12T20:07:01.831Z,100.00
2023-05-12T20:09:40.022Z,100.00
2023-05-12T20:12:21.602Z,100.00
2023-05-12T20:15:12.788Z,100.00
2023-05-12T20:17:55.337Z,100.00
2023-05-12T20:20:34.713Z,100.00
2023-05-12T20:23:14.795Z,100.00
2023-05-12T20:25:54.809Z,100.00
2023-05-12T20:28:40.803Z,100.00
2023-05-12T20:31:24.739Z,100.00
2023-05-12T20:34:05.888Z,100.00
2023-05-12T20:36:50.565Z,100.00
2023-05-12T20:39:37.874Z,100.00
2023-05-12T20:42:30.245Z,100.00
2023-05-12T20:45:14.100Z,100.00
2023-05-12T20:47:56.329Z,100.00
2023-05-12T20:50:39.842Z,100.00
2023-05-12T20:53:30.751Z,100.00
2023-05-12T20:56:15.229Z,100.00
2023-05-12T20:58:49.310Z,100.00
2023-05-12T21:01:38.989Z,100.00
2023-05-12T21:04:21.021Z,100.00
2023-05-12T21:07:04.651Z,100.00
2023-05-12T21:09:56.563Z,100.00
2023-05-12T21:12:40.434Z,100.00
2023-05-12T21:15:30.590Z,100.00
2023-05-12T21:18:29.779Z,100.00
2023-05-12T21:21:13.892Z,100.00
2023-05-12T21:24:02.809Z,100.00
2023-05-12T21:26:48.242Z,100.00
2023-05-12T21:29:26.259Z,100.00
2023-05-12T21:32:07.280Z,100.00
2023-05-12T21:35:14.527Z,100.00
2023-05-12T21:38:07.319Z,100.00
2023-05-12T21:40:56.463Z,100.00
2023-05-12T21:43:43.810Z,100.00
2023-05-12T21:46:29.655Z,100.00
2023-05-12T21:49:11.158Z,100.00
2023-05-12T21:51:57.844Z,100.00
2023-05-12T21:54:35.903Z,100.00
2023-05-12T21:57:22.906Z,100.00
2023-05-12T22:00:10.160Z,100.00
2023-05-12T22:02:50.551Z,100.00
2023-05-12T22:05:26.918Z,100.00
2023-05-12T22:08:21.614Z,100.00
2023-05-12T22:11:05.492Z,100.00
2023-05-12T22:13:48.861Z,100.00
2023-05-12T22:16:40.666Z,100.00
2023-05-12T22:19:25.814Z,100.00
2023-05-12T22:22:15.257Z,100.00
2023-05-12T22:24:56.887Z,100.00
2023-05-12T22:27:37.407Z,100.00
2023-05-12T22:30:15.778Z,100.00
2023-05-12T22:33:08.372Z,100.00
2023-05-12T22:35:52.309Z,100.00
2023-05-12T22:38:43.896Z,100.00
2023-05-12T22:41:24.900Z,100.00
2023-05-12T22:44:11.358Z,100.00
2023-05-12T22:46:57.546Z,100.00
2023-05-12T22:49:40.854Z,100.00
2023-05-12T22:52:32.583Z,100.00
2023-05-12T22:55:18.954Z,100.00
2023-05-12T22:58:02.212Z,100.00
2023-05-12T23:00:46.975Z,100.00
2023-05-12T23:03:26.939Z,100.00
2023-05-12T23:06:07.548Z,100.00
2023-05-12T23:08:56.239Z,100.00
2023-05-12T23:11:39.286Z,100.00
2023-05-12T23:14:25.434Z,100.00
2023-05-12T23:17:20.960Z,100.00
2023-05-12T23:20:04.905Z,100.00
2023-05-12T23:22:59.740Z,100.00
2023-05-12T23:25:46.489Z,100.00
2023-05-12T23:28:13.373Z,100.00
2023-05-12T23:31:03.903Z,100.00
2023-05-12T23:33:44.499Z,100.00
2023-05-12T23:36:25.399Z,100.00
2023-05-12T23:39:06.302Z,100.00
2023-05-12T23:41:56.344Z,100.00
2023-05-12T23:44:36.868Z,100.00
2023-05-12T23:47:17.905Z,100.00
2023-05-12T23:50:01.216Z,100.00
2023-05-12T23:52:53.230Z,100.00
2023-05-12T23:55:40.251Z,100.00
2023-05-12T23:58:18.649Z,100.00
